createdAt,value
2023-03-29T00:00:33.065Z,7.00
2023-03-29T00:03:02.174Z,6.00
2023-03-29T00:05:34.040Z,4.50
2023-03-29T00:08:04.579Z,5.50
2023-03-29T00:10:34.515Z,6.25
2023-03-29T00:13:02.937Z,5.00
2023-03-29T00:15:31.033Z,5.75
2023-03-29T00:17:59.474Z,7.00
2023-03-29T00:20:29.030Z,5.25
2023-03-29T00:22:57.133Z,4.00
2023-03-29T00:25:25.961Z,4.00
2023-03-29T00:27:55.498Z,5.00
2023-03-29T00:30:24.433Z,4.00
2023-03-29T00:32:53.559Z,5.50
2023-03-29T00:35:22.153Z,2.50
2023-03-29T00:37:53.163Z,3.00
2023-03-29T00:40:21.402Z,4.00
2023-03-29T00:42:49.513Z,4.75
2023-03-29T00:45:20.941Z,5.00
2023-03-29T00:47:50.314Z,4.00
2023-03-29T00:50:22.360Z,7.50
2023-03-29T00:52:53.084Z,5.00
2023-03-29T00:55:23.006Z,4.00
2023-03-29T00:57:55.821Z,1.00
2023-03-29T01:00:28.108Z,3.50
2023-03-29T01:02:59.925Z,4.00
2023-03-29T01:05:31.133Z,4.00
2023-03-29T01:08:01.629Z,5.00
2023-03-29T01:10:34.215Z,5.50
2023-03-29T01:13:05.026Z,4.00
2023-03-29T01:15:34.925Z,5.00
2023-03-29T01:18:03.208Z,5.00
2023-03-29T01:20:37.397Z,4.75
2023-03-29T01:23:16.078Z,3.00
2023-03-29T01:25:49.113Z,4.75
2023-03-29T01:28:20.326Z,4.75
2023-03-29T01:30:51.376Z,4.00
2023-03-29T01:33:21.735Z,2.25
2023-03-29T01:35:52.486Z,0.50
2023-03-29T01:38:24.713Z,5.00
2023-03-29T01:40:53.245Z,6.00
2023-03-29T01:43:25.468Z,6.25
2023-03-29T01:45:59.639Z,5.50
2023-03-29T01:48:30.501Z,5.50
2023-03-29T01:51:03.888Z,4.00
2023-03-29T01:53:35.455Z,4.00
2023-03-29T01:56:07.808Z,3.00
2023-03-29T01:58:40.207Z,6.00
2023-03-29T02:01:11.220Z,5.50
2023-03-29T02:03:42.735Z,4.00
2023-03-29T02:06:12.300Z,5.00
2023-03-29T02:08:41.480Z,2.00
2023-03-29T02:11:10.427Z,4.00
2023-03-29T02:13:39.920Z,4.00
2023-03-29T02:16:12.390Z,3.00
2023-03-29T02:18:41.470Z,4.00
2023-03-29T02:21:10.144Z,4.00
2023-03-29T02:23:39.664Z,4.75
2023-03-29T02:26:09.225Z,2.50
2023-03-29T02:28:37.969Z,5.00
2023-03-29T02:31:13.161Z,2.00
2023-03-29T02:33:45.814Z,2.50
2023-03-29T02:36:19.049Z,1.25
2023-03-29T02:38:47.686Z,2.50
2023-03-29T02:41:17.979Z,2.00
2023-03-29T02:43:47.783Z,4.50
2023-03-29T02:46:18.081Z,5.00
2023-03-29T02:48:47.705Z,4.00
2023-03-29T02:51:19.935Z,4.00
2023-03-29T02:53:53.257Z,3.50
2023-03-29T02:56:21.703Z,3.50
2023-03-29T02:58:49.924Z,4.00
2023-03-29T03:01:20.539Z,1.75
2023-03-29T03:03:50.788Z,4.00
2023-03-29T03:06:21.432Z,4.75
2023-03-29T03:08:49.997Z,3.50
2023-03-29T03:11:18.242Z,4.00
2023-03-29T03:13:47.595Z,2.50
2023-03-29T03:16:15.839Z,4.75
2023-03-29T03:18:46.218Z,2.00
2023-03-29T03:21:14.405Z,2.00
2023-03-29T03:23:42.508Z,4.00
2023-03-29T03:26:10.916Z,4.00
2023-03-29T03:28:40.254Z,4.00
2023-03-29T03:31:14.088Z,2.50
2023-03-29T03:34:09.740Z,4.00
2023-03-29T03:36:43.589Z,4.50
2023-03-29T03:39:13.245Z,4.00
2023-03-29T03:41:41.456Z,4.00
2023-03-29T03:44:09.794Z,4.00
2023-03-29T03:46:38.356Z,4.00
2023-03-29T03:49:06.716Z,4.50
2023-03-29T03:51:42.469Z,4.00
2023-03-29T03:54:10.903Z,5.00
2023-03-29T03:56:39.181Z,4.00
2023-03-29T03:59:18.265Z,2.00
2023-03-29T04:02:05.891Z,2.00
2023-03-29T04:04:34.913Z,2.00
2023-03-29T04:07:14.594Z,4.00
2023-03-29T04:10:06.284Z,3.00
2023-03-29T04:12:53.062Z,2.00
2023-03-29T04:15:22.318Z,4.50
2023-03-29T04:17:59.299Z,4.00
2023-03-29T04:20:34.750Z,2.00
2023-03-29T04:23:05.089Z,2.00
2023-03-29T04:25:33.441Z,2.00
2023-03-29T04:28:07.580Z,4.00
2023-03-29T04:30:46.583Z,5.00
2023-03-29T04:33:22.677Z,4.00
2023-03-29T04:35:59.329Z,4.50
2023-03-29T04:38:29.213Z,3.00
2023-03-29T04:40:57.320Z,5.00
2023-03-29T04:43:46.768Z,4.00
2023-03-29T04:46:25.598Z,5.00
2023-03-29T04:49:12.759Z,2.00
2023-03-29T04:51:43.622Z,4.00
2023-03-29T04:54:13.939Z,5.00
2023-03-29T04:57:09.018Z,4.25
2023-03-29T04:59:44.057Z,4.00
2023-03-29T05:02:32.514Z,1.00
2023-03-29T05:05:00.888Z,4.25
2023-03-29T05:07:29.921Z,4.00
2023-03-29T05:09:59.900Z,4.00
2023-03-29T05:12:28.482Z,4.50
2023-03-29T05:14:58.440Z,3.50
2023-03-29T05:17:28.519Z,2.00
2023-03-29T05:20:07.325Z,1.00
2023-03-29T05:22:36.438Z,2.00
2023-03-29T05:25:06.449Z,4.25
2023-03-29T05:27:34.732Z,4.00
2023-03-29T05:30:10.038Z,4.00
2023-03-29T05:32:57.375Z,2.00
2023-03-29T05:35:28.147Z,3.50
2023-03-29T05:37:58.344Z,3.50
2023-03-29T05:40:29.612Z,2.50
2023-03-29T05:43:24.372Z,3.00
2023-03-29T05:45:53.898Z,3.75
2023-03-29T05:48:23.392Z,3.50
2023-03-29T05:50:52.421Z,1.00
2023-03-29T05:53:21.281Z,2.00
2023-03-29T05:55:51.549Z,3.25
2023-03-29T05:58:21.878Z,3.00
2023-03-29T06:00:51.510Z,3.00
2023-03-29T06:03:47.567Z,5.00
2023-03-29T06:06:17.791Z,3.00
2023-03-29T06:08:46.520Z,2.25
2023-03-29T06:11:36.383Z,3.00
2023-03-29T06:14:04.725Z,1.00
2023-03-29T06:16:33.791Z,2.50
2023-03-29T06:19:02.689Z,3.25
2023-03-29T06:21:31.890Z,2.00
2023-03-29T06:24:00.540Z,1.50
2023-03-29T06:26:33.737Z,0.00
2023-03-29T06:29:04.675Z,1.00
2023-03-29T06:31:36.263Z,1.00
2023-03-29T06:34:06.122Z,2.50
2023-03-29T06:36:55.112Z,2.00
2023-03-29T06:39:23.447Z,3.00
2023-03-29T06:42:20.757Z,2.00
2023-03-29T06:45:17.371Z,2.50
2023-03-29T06:47:49.418Z,2.00
2023-03-29T06:50:18.508Z,2.00
2023-03-29T06:52:54.504Z,2.50
2023-03-29T06:55:23.680Z,3.00
2023-03-29T06:57:52.982Z,2.00
2023-03-29T07:00:29.650Z,2.00
2023-03-29T07:03:23.652Z,2.00
2023-03-29T07:06:01.422Z,2.00
2023-03-29T07:08:31.847Z,2.00
2023-03-29T07:11:05.638Z,3.00
2023-03-29T07:13:54.506Z,2.50
2023-03-29T07:16:24.346Z,1.75
2023-03-29T07:19:24.442Z,2.00
2023-03-29T07:21:53.454Z,0.00
2023-03-29T07:24:25.196Z,4.50
2023-03-29T07:27:03.315Z,1.00
2023-03-29T07:29:32.871Z,2.25
2023-03-29T07:32:02.592Z,1.00
2023-03-29T07:34:46.406Z,2.00
2023-03-29T07:37:27.091Z,1.75
2023-03-29T07:39:57.044Z,2.00
2023-03-29T07:42:36.746Z,0.00
2023-03-29T07:45:06.094Z,2.00
2023-03-29T07:47:42.460Z,2.00
2023-03-29T07:50:11.298Z,2.00
2023-03-29T07:52:40.082Z,2.00
2023-03-29T07:55:09.253Z,3.25
2023-03-29T07:58:00.987Z,2.00
2023-03-29T08:00:29.626Z,2.00
2023-03-29T08:03:22.264Z,2.00
2023-03-29T08:05:50.477Z,2.00
2023-03-29T08:08:22.262Z,1.00
2023-03-29T08:10:59.507Z,2.00
2023-03-29T08:13:43.224Z,1.00
2023-03-29T08:16:31.676Z,2.00
2023-03-29T08:19:08.336Z,1.00
2023-03-29T08:21:54.050Z,2.00
2023-03-29T08:24:26.749Z,1.50
2023-03-29T08:26:59.038Z,2.25
2023-03-29T08:29:27.318Z,1.50
2023-03-29T08:31:57.277Z,1.00
2023-03-29T08:34:27.772Z,1.00
2023-03-29T08:37:15.072Z,2.40
2023-03-29T08:39:47.112Z,3.00
2023-03-29T08:42:49.387Z,1.00
2023-03-29T08:45:23.336Z,1.00
2023-03-29T08:48:00.195Z,1.00
2023-03-29T08:50:34.109Z,1.25
2023-03-29T08:53:07.102Z,1.20
2023-03-29T08:56:12.078Z,1.00
2023-03-29T08:59:18.970Z,1.00
2023-03-29T09:01:49.732Z,2.00
2023-03-29T09:04:21.584Z,1.50
2023-03-29T09:07:00.940Z,2.00
2023-03-29T09:09:36.930Z,1.00
2023-03-29T09:12:19.634Z,2.00
2023-03-29T09:14:57.673Z,2.50
2023-03-29T09:17:41.054Z,1.75
2023-03-29T09:20:21.383Z,1.75
2023-03-29T09:22:56.721Z,2.00
2023-03-29T09:25:31.882Z,2.00
2023-03-29T09:28:05.425Z,2.00
2023-03-29T09:30:53.071Z,3.25
2023-03-29T09:33:26.159Z,2.00
2023-03-29T09:36:25.829Z,1.00
2023-03-29T09:38:56.469Z,2.00
2023-03-29T09:41:35.135Z,3.00
2023-03-29T09:44:10.943Z,2.00
2023-03-29T09:46:48.925Z,1.00
2023-03-29T09:49:20.005Z,2.00
2023-03-29T09:51:50.050Z,1.50
2023-03-29T09:54:21.820Z,2.00
2023-03-29T09:57:25.407Z,2.00
2023-03-29T09:59:53.843Z,2.75
2023-03-29T10:02:22.734Z,3.00
2023-03-29T10:04:55.503Z,2.50
2023-03-29T10:07:24.051Z,1.25
2023-03-29T10:10:01.217Z,2.50
2023-03-29T10:12:29.574Z,1.00
2023-03-29T10:14:57.818Z,3.00
2023-03-29T10:17:26.747Z,3.50
2023-03-29T10:19:58.306Z,5.00
2023-03-29T10:22:27.441Z,4.50
2023-03-29T10:24:57.365Z,1.00
2023-03-29T10:27:28.394Z,5.00
2023-03-29T10:29:58.089Z,6.00
2023-03-29T10:32:29.536Z,5.75
2023-03-29T10:35:00.962Z,4.00
2023-03-29T10:37:29.750Z,7.00
2023-03-29T10:39:57.992Z,6.00
2023-03-29T10:42:29.615Z,5.75
2023-03-29T10:44:58.616Z,5.50
2023-03-29T10:47:27.316Z,5.50
2023-03-29T10:49:57.152Z,8.50
2023-03-29T10:52:26.923Z,7.50
2023-03-29T10:54:56.497Z,9.75
2023-03-29T10:57:28.296Z,6.50
2023-03-29T11:00:04.708Z,8.00
2023-03-29T11:02:39.484Z,7.50
2023-03-29T11:05:17.342Z,8.00
2023-03-29T11:07:51.073Z,7.50
2023-03-29T11:10:34.821Z,7.50
2023-03-29T11:13:08.619Z,6.00
2023-03-29T11:15:43.579Z,8.50
2023-03-29T11:18:27.553Z,9.25
2023-03-29T11:21:00.348Z,8.00
2023-03-29T11:23:37.788Z,7.75
2023-03-29T11:26:10.881Z,8.00
2023-03-29T11:28:42.329Z,8.00
2023-03-29T11:31:17.018Z,11.25
2023-03-29T11:33:51.400Z,9.00
2023-03-29T11:36:22.471Z,5.25
2023-03-29T11:38:54.743Z,10.50
2023-03-29T11:41:24.378Z,10.50
2023-03-29T11:43:55.217Z,4.50
2023-03-29T11:46:28.993Z,9.75
2023-03-29T11:49:00.525Z,6.00
2023-03-29T11:51:34.033Z,6.75
2023-03-29T11:54:05.580Z,6.75
2023-03-29T11:56:38.375Z,9.00
2023-03-29T11:59:11.705Z,8.50
2023-03-29T12:01:44.861Z,12.00
2023-03-29T12:04:42.779Z,9.50
2023-03-29T12:07:14.399Z,4.75
2023-03-29T12:09:46.972Z,8.75
2023-03-29T12:12:16.879Z,10.50
2023-03-29T12:14:57.893Z,8.75
2023-03-29T12:17:29.680Z,7.25
2023-03-29T12:20:04.697Z,6.00
2023-03-29T12:22:34.348Z,7.50
2023-03-29T12:25:04.253Z,8.00
2023-03-29T12:27:34.645Z,6.00
2023-03-29T12:30:23.615Z,4.00
2023-03-29T12:33:03.620Z,5.00
2023-03-29T12:35:56.713Z,4.25
2023-03-29T12:38:45.050Z,6.00
2023-03-29T12:41:45.761Z,4.25
2023-03-29T12:44:37.359Z,5.25
2023-03-29T12:47:42.636Z,6.50
2023-03-29T12:50:23.285Z,4.00
2023-03-29T12:52:51.773Z,6.00
2023-03-29T12:55:23.971Z,5.75
2023-03-29T12:58:01.812Z,3.50
2023-03-29T13:00:34.059Z,6.00
2023-03-29T13:03:05.244Z,7.50
2023-03-29T13:05:38.293Z,6.00
2023-03-29T13:08:20.746Z,5.00
2023-03-29T13:10:54.101Z,6.00
2023-03-29T13:13:25.232Z,3.00
2023-03-29T13:15:53.642Z,5.50
2023-03-29T13:18:34.128Z,4.75
2023-03-29T13:21:12.933Z,5.00
2023-03-29T13:23:46.103Z,5.00
2023-03-29T13:26:19.839Z,6.00
2023-03-29T13:28:57.263Z,5.00
2023-03-29T13:31:32.526Z,4.00
2023-03-29T13:34:03.275Z,6.00
2023-03-29T13:36:47.379Z,8.00
2023-03-29T13:39:18.028Z,6.00
2023-03-29T13:41:48.400Z,6.50
2023-03-29T13:44:27.450Z,0.00
2023-03-29T13:47:06.644Z,4.00
2023-03-29T13:49:36.159Z,5.00
2023-03-29T13:52:13.473Z,5.75
2023-03-29T13:54:44.266Z,6.00
2023-03-29T13:57:16.737Z,8.00
2023-03-29T13:59:49.408Z,1.00
2023-03-29T14:02:22.622Z,7.00
2023-03-29T14:04:52.067Z,8.00
2023-03-29T14:07:26.418Z,5.75
2023-03-29T14:09:56.700Z,7.00
2023-03-29T14:12:25.632Z,7.00
2023-03-29T14:14:59.282Z,7.00
2023-03-29T14:17:28.216Z,6.00
2023-03-29T14:19:59.096Z,6.00
2023-03-29T14:22:34.214Z,7.50
2023-03-29T14:25:04.817Z,5.00
2023-03-29T14:27:33.635Z,6.25
2023-03-29T14:30:02.099Z,8.00
2023-03-29T14:32:32.302Z,6.00
2023-03-29T14:35:02.006Z,7.25
2023-03-29T14:37:32.704Z,7.00
2023-03-29T14:40:01.191Z,5.50
2023-03-29T14:42:30.585Z,8.75
2023-03-29T14:44:59.585Z,6.00
2023-03-29T14:47:29.467Z,7.00
2023-03-29T14:50:01.041Z,5.25
2023-03-29T14:52:33.372Z,5.75
2023-03-29T14:55:05.112Z,7.00
2023-03-29T14:57:38.880Z,5.75
2023-03-29T15:00:17.963Z,7.00
2023-03-29T15:02:50.774Z,9.00
2023-03-29T15:05:27.378Z,4.50
2023-03-29T15:07:57.367Z,6.00
2023-03-29T15:10:25.981Z,8.00
2023-03-29T15:12:55.163Z,8.00
2023-03-29T15:15:25.177Z,8.00
2023-03-29T15:17:54.052Z,6.00
2023-03-29T15:20:23.521Z,6.50
2023-03-29T15:22:54.579Z,5.75
2023-03-29T15:25:25.386Z,6.00
2023-03-29T15:27:57.555Z,8.25
2023-03-29T15:30:34.552Z,7.25
2023-03-29T15:33:18.107Z,6.50
2023-03-29T15:35:49.670Z,5.25
2023-03-29T15:38:18.100Z,7.00
2023-03-29T15:40:49.705Z,10.25
2023-03-29T15:43:19.929Z,9.25
2023-03-29T15:45:48.147Z,10.50
2023-03-29T15:48:17.361Z,9.00
2023-03-29T15:50:45.646Z,11.00
2023-03-29T15:53:15.747Z,11.50
2023-03-29T15:55:46.509Z,5.25
2023-03-29T15:58:17.482Z,11.00
2023-03-29T16:00:49.769Z,9.00
2023-03-29T16:03:18.595Z,10.00
2023-03-29T16:05:47.310Z,11.50
2023-03-29T16:08:15.896Z,12.00
2023-03-29T16:10:45.054Z,12.00
2023-03-29T16:13:14.695Z,12.00
2023-03-29T16:15:44.372Z,11.00
2023-03-29T16:18:13.768Z,8.25
2023-03-29T16:20:42.331Z,12.50
2023-03-29T16:23:11.708Z,12.00
2023-03-29T16:25:40.884Z,11.50
2023-03-29T16:28:10.432Z,11.50
2023-03-29T16:30:39.632Z,13.00
2023-03-29T16:33:17.463Z,6.25
2023-03-29T16:35:46.119Z,9.50
2023-03-29T16:38:14.452Z,12.50
2023-03-29T16:40:43.084Z,12.75
2023-03-29T16:43:15.345Z,12.00
2023-03-29T16:45:44.464Z,14.50
2023-03-29T16:48:15.135Z,9.75
2023-03-29T16:50:44.808Z,11.50
2023-03-29T16:53:12.933Z,10.75
2023-03-29T16:55:42.863Z,8.00
2023-03-29T16:58:15.612Z,13.00
2023-03-29T17:00:46.406Z,12.00
2023-03-29T17:03:18.068Z,12.00
2023-03-29T17:05:48.216Z,10.00
2023-03-29T17:08:16.885Z,10.00
2023-03-29T17:10:45.745Z,11.25
2023-03-29T17:13:15.251Z,11.75
2023-03-29T17:15:45.200Z,13.75
2023-03-29T17:18:18.932Z,9.00
2023-03-29T17:20:49.448Z,14.25
2023-03-29T17:23:18.745Z,12.25
2023-03-29T17:25:55.944Z,13.00
2023-03-29T17:28:24.635Z,13.50
2023-03-29T17:30:53.042Z,13.00
2023-03-29T17:33:22.778Z,9.75
2023-03-29T17:35:53.055Z,12.50
2023-03-29T17:38:21.612Z,13.50
2023-03-29T17:40:53.217Z,12.50
2023-03-29T17:43:21.766Z,12.50
2023-03-29T17:45:52.096Z,15.25
2023-03-29T17:48:20.778Z,9.00
2023-03-29T17:50:49.180Z,14.00
2023-03-29T17:53:19.211Z,12.75
2023-03-29T17:55:48.125Z,13.75
2023-03-29T17:58:17.034Z,12.25
2023-03-29T18:00:45.903Z,12.50
2023-03-29T18:03:17.857Z,13.75
2023-03-29T18:05:46.301Z,10.25
2023-03-29T18:08:15.209Z,12.50
2023-03-29T18:10:47.610Z,15.00
2023-03-29T18:13:16.225Z,16.75
2023-03-29T18:15:45.417Z,15.75
2023-03-29T18:18:13.656Z,13.50
2023-03-29T18:20:42.028Z,16.75
2023-03-29T18:23:10.406Z,16.50
2023-03-29T18:25:39.054Z,8.25
2023-03-29T18:28:08.757Z,16.50
2023-03-29T18:30:37.233Z,16.50
2023-03-29T18:33:05.683Z,14.50
2023-03-29T18:35:34.642Z,16.50
2023-03-29T18:38:03.607Z,15.00
2023-03-29T18:40:32.300Z,17.50
2023-03-29T18:43:00.864Z,18.50
2023-03-29T18:45:30.910Z,17.00
2023-03-29T18:47:59.103Z,14.50
2023-03-29T18:50:27.438Z,16.00
2023-03-29T18:52:55.861Z,15.50
2023-03-29T18:55:24.315Z,18.75
2023-03-29T18:57:52.733Z,15.50
2023-03-29T19:00:21.175Z,13.25
2023-03-29T19:02:50.971Z,16.00
2023-03-29T19:05:19.238Z,17.00
2023-03-29T19:07:47.546Z,15.25
2023-03-29T19:10:15.709Z,17.00
2023-03-29T19:12:44.733Z,17.50
2023-03-29T19:15:13.937Z,17.00
2023-03-29T19:17:42.387Z,15.00
2023-03-29T19:20:13.402Z,13.00
2023-03-29T19:22:41.823Z,15.00
2023-03-29T19:25:10.803Z,13.00
2023-03-29T19:27:39.027Z,16.50
2023-03-29T19:30:08.226Z,14.25
2023-03-29T19:32:38.756Z,14.25
2023-03-29T19:35:09.712Z,17.25
2023-03-29T19:37:39.348Z,14.50
2023-03-29T19:40:10.910Z,16.00
2023-03-29T19:42:40.153Z,16.50
2023-03-29T19:45:09.579Z,16.50
2023-03-29T19:47:37.850Z,16.00
2023-03-29T19:50:07.277Z,9.00
2023-03-29T19:52:35.497Z,17.00
2023-03-29T19:55:06.611Z,14.00
2023-03-29T19:57:34.827Z,14.50
2023-03-29T20:00:04.341Z,16.25
2023-03-29T20:02:41.836Z,16.50
2023-03-29T20:05:10.535Z,18.75
2023-03-29T20:07:38.691Z,15.00
2023-03-29T20:10:09.928Z,17.25
2023-03-29T20:12:38.166Z,20.00
2023-03-29T20:15:06.858Z,19.25
2023-03-29T20:17:35.744Z,15.00
2023-03-29T20:20:08.415Z,16.75
2023-03-29T20:22:38.341Z,17.00
2023-03-29T20:25:06.915Z,19.00
2023-03-29T20:27:36.672Z,18.00
2023-03-29T20:30:04.883Z,16.00
2023-03-29T20:32:33.149Z,20.00
2023-03-29T20:35:01.274Z,18.75
2023-03-29T20:37:31.092Z,15.50
2023-03-29T20:39:59.543Z,17.50
2023-03-29T20:42:29.865Z,20.00
2023-03-29T20:45:00.390Z,20.50
2023-03-29T20:47:29.605Z,19.00
2023-03-29T20:49:58.010Z,13.50
2023-03-29T20:52:26.132Z,12.00
2023-03-29T20:54:54.692Z,10.75
2023-03-29T20:57:22.928Z,14.75
2023-03-29T20:59:51.033Z,20.00
2023-03-29T21:02:21.711Z,17.00
2023-03-29T21:04:53.601Z,15.50
2023-03-29T21:07:22.553Z,21.75
2023-03-29T21:09:50.829Z,18.75
2023-03-29T21:12:20.346Z,17.50
2023-03-29T21:14:48.649Z,18.00
2023-03-29T21:17:16.767Z,18.75
2023-03-29T21:19:46.317Z,17.50
2023-03-29T21:22:14.958Z,19.50
2023-03-29T21:24:43.244Z,15.00
2023-03-29T21:27:11.600Z,19.00
2023-03-29T21:29:39.772Z,17.00
2023-03-29T21:32:08.037Z,18.00
2023-03-29T21:34:36.303Z,17.00
2023-03-29T21:37:05.950Z,17.25
2023-03-29T21:39:34.118Z,17.75
2023-03-29T21:42:02.912Z,15.00
2023-03-29T21:44:33.169Z,12.50
2023-03-29T21:47:02.683Z,17.00
2023-03-29T21:49:31.852Z,19.50
2023-03-29T21:52:00.142Z,14.25
2023-03-29T21:54:29.670Z,17.00
2023-03-29T21:56:57.907Z,17.00
2023-03-29T21:59:26.086Z,18.00
2023-03-29T22:01:54.222Z,20.50
2023-03-29T22:04:35.377Z,19.00
2023-03-29T22:07:04.551Z,20.00
2023-03-29T22:09:35.603Z,19.00
2023-03-29T22:12:05.479Z,17.50
2023-03-29T22:14:35.371Z,19.25
2023-03-29T22:17:05.711Z,21.75
2023-03-29T22:19:34.574Z,22.50
2023-03-29T22:22:03.955Z,23.00
2023-03-29T22:24:32.023Z,22.25
2023-03-29T22:27:01.801Z,23.75
2023-03-29T22:29:29.857Z,22.50
2023-03-29T22:31:58.228Z,21.00
2023-03-29T22:34:26.632Z,19.75
2023-03-29T22:36:54.863Z,21.25
2023-03-29T22:39:23.026Z,23.75
2023-03-29T22:41:51.613Z,22.50
2023-03-29T22:44:21.116Z,23.00
2023-03-29T22:46:49.184Z,21.00
2023-03-29T22:49:17.257Z,13.00
2023-03-29T22:51:45.523Z,20.50
2023-03-29T22:54:14.236Z,21.75
2023-03-29T22:56:42.322Z,15.00
2023-03-29T22:59:10.660Z,19.50
2023-03-29T23:01:40.632Z,20.75
2023-03-29T23:04:08.852Z,19.25
2023-03-29T23:06:36.911Z,19.50
2023-03-29T23:09:05.630Z,20.25
2023-03-29T23:11:33.642Z,16.25
2023-03-29T23:14:04.064Z,16.75
2023-03-29T23:16:32.223Z,17.50
2023-03-29T23:19:02.868Z,19.00
2023-03-29T23:21:31.096Z,17.50
2023-03-29T23:23:59.167Z,17.00
2023-03-29T23:26:28.012Z,20.00
2023-03-29T23:28:57.579Z,16.50
2023-03-29T23:31:25.970Z,18.00
2023-03-29T23:33:54.307Z,13.00
2023-03-29T23:36:27.216Z,18.00
2023-03-29T23:38:55.322Z,17.75
2023-03-29T23:41:28.244Z,17.50
2023-03-29T23:43:57.839Z,16.25
2023-03-29T23:46:26.181Z,19.00
2023-03-29T23:48:54.301Z,20.75
2023-03-29T23:51:28.239Z,12.00
2023-03-29T23:53:56.938Z,16.00
2023-03-29T23:56:25.093Z,17.00
2023-03-29T23:58:53.167Z,16.75
